createdAt,value
2018-07-02T00:00:43.023Z,96364.00
2018-07-02T00:03:10.916Z,96350.00
2018-07-02T00:06:35.038Z,96350.00
2018-07-02T00:09:03.611Z,96354.00
2018-07-02T00:11:31.535Z,96352.00
2018-07-02T00:13:59.966Z,96353.00
2018-07-02T00:16:28.321Z,96357.00
2018-07-02T00:18:56.242Z,96353.00
2018-07-02T00:21:24.146Z,96343.00
2018-07-02T00:23:52.148Z,96357.00
2018-07-02T00:26:20.068Z,96352.00
2018-07-02T00:28:47.914Z,96354.00
2018-07-02T00:31:15.827Z,96349.00
2018-07-02T00:33:43.873Z,96348.00
2018-07-02T00:36:11.769Z,96344.00
2018-07-02T00:38:39.711Z,96343.00
2018-07-02T00:41:08.294Z,96342.00
2018-07-02T00:43:36.625Z,96350.00
2018-07-02T00:46:04.517Z,96344.00
2018-07-02T00:48:32.397Z,96345.00
2018-07-02T00:51:00.295Z,96348.00
2018-07-02T00:53:28.174Z,96333.00
2018-07-02T00:55:56.151Z,96338.00
2018-07-02T00:58:24.028Z,96331.00
2018-07-02T01:00:51.953Z,96337.00
2018-07-02T01:03:19.869Z,96339.00
2018-07-02T01:05:47.734Z,96341.00
2018-07-02T01:08:15.646Z,96332.00
2018-07-02T01:10:43.522Z,96331.00
2018-07-02T01:13:11.412Z,96333.00
2018-07-02T01:15:39.463Z,96328.00
2018-07-02T01:18:07.387Z,96333.00
2018-07-02T01:20:35.313Z,96336.00
2018-07-02T01:23:03.186Z,96333.00
2018-07-02T01:25:31.072Z,96335.00
2018-07-02T01:27:58.982Z,96332.00
2018-07-02T01:30:26.852Z,96326.00
2018-07-02T01:32:54.821Z,96334.00
2018-07-02T01:35:22.689Z,96332.00
2018-07-02T01:37:50.579Z,96332.00
2018-07-02T01:40:18.498Z,96334.00
2018-07-02T01:42:46.388Z,96336.00
2018-07-02T01:45:14.321Z,96334.00
2018-07-02T01:47:42.221Z,96324.00
2018-07-02T01:50:10.153Z,96328.00
2018-07-02T01:52:38.150Z,96322.00
2018-07-02T01:55:06.095Z,96324.00
2018-07-02T01:57:34.018Z,96324.00
2018-07-02T02:00:01.899Z,96320.00
2018-07-02T02:02:29.769Z,96313.00
2018-07-02T02:04:57.663Z,96317.00
2018-07-02T02:07:25.540Z,96313.00
2018-07-02T02:09:53.499Z,96314.00
2018-07-02T02:12:21.417Z,96312.00
2018-07-02T02:14:49.333Z,96311.00
2018-07-02T02:17:17.328Z,96311.00
2018-07-02T02:19:45.258Z,96312.00
2018-07-02T02:22:13.221Z,96320.00
2018-07-02T02:24:41.214Z,96316.00
2018-07-02T02:27:09.101Z,96317.00
2018-07-02T02:29:37.069Z,96314.00
2018-07-02T02:32:05.074Z,96319.00
2018-07-02T02:34:32.998Z,96321.00
2018-07-02T02:37:00.900Z,96324.00
2018-07-02T02:39:28.835Z,96319.00
2018-07-02T02:41:56.764Z,96321.00
2018-07-02T02:44:24.718Z,96315.00
2018-07-02T02:46:52.719Z,96322.00
2018-07-02T02:49:20.614Z,96324.00
2018-07-02T02:51:48.530Z,96321.00
2018-07-02T02:54:16.462Z,96321.00
2018-07-02T02:56:44.343Z,96321.00
2018-07-02T02:59:12.244Z,96322.00
2018-07-02T03:01:40.171Z,96310.00
2018-07-02T03:04:08.067Z,96322.00
2018-07-02T03:06:35.972Z,96321.00
2018-07-02T03:09:06.304Z,96331.00
2018-07-02T03:11:34.196Z,96324.00
2018-07-02T03:14:02.107Z,96314.00
2018-07-02T03:16:30.100Z,96328.00
2018-07-02T03:18:58.009Z,96330.00
2018-07-02T03:21:25.945Z,96336.00
2018-07-02T03:23:56.615Z,96334.00
2018-07-02T03:26:24.543Z,96335.00
2018-07-02T03:28:52.516Z,96335.00
2018-07-02T03:31:20.441Z,96339.00
2018-07-02T03:33:48.339Z,96339.00
2018-07-02T03:36:16.339Z,96346.00
2018-07-02T03:38:44.255Z,96347.00
2018-07-02T03:41:12.128Z,96348.00
2018-07-02T03:43:40.081Z,96345.00
2018-07-02T03:46:07.952Z,96343.00
2018-07-02T03:48:35.823Z,96346.00
2018-07-02T03:51:04.057Z,96341.00
2018-07-02T03:53:31.945Z,96332.00
2018-07-02T03:56:00.344Z,96337.00
2018-07-02T03:58:28.290Z,96335.00
2018-07-02T04:00:56.173Z,96327.00
2018-07-02T04:03:24.133Z,96332.00
2018-07-02T04:05:52.066Z,96336.00
2018-07-02T04:08:19.952Z,96332.00
2018-07-02T04:10:47.826Z,96340.00
2018-07-02T04:13:15.819Z,96339.00
2018-07-02T04:15:43.720Z,96334.00
2018-07-02T04:18:11.628Z,96341.00
2018-07-02T04:20:39.564Z,96337.00
2018-07-02T04:23:07.453Z,96338.00
2018-07-02T04:25:35.395Z,96336.00
2018-07-02T04:28:03.336Z,96328.00
2018-07-02T04:30:31.265Z,96337.00
2018-07-02T04:32:59.194Z,96339.00
2018-07-02T04:35:27.141Z,96326.00
2018-07-02T04:37:55.165Z,96341.00
2018-07-02T04:40:23.686Z,96338.00
2018-07-02T04:42:51.136Z,96343.00
2018-07-02T04:45:19.037Z,96344.00
2018-07-02T04:47:46.973Z,96341.00
2018-07-02T04:50:14.871Z,96345.00
2018-07-02T04:52:42.757Z,96340.00
2018-07-02T04:55:10.645Z,96341.00
2018-07-02T04:57:38.570Z,96343.00
2018-07-02T05:00:06.444Z,96348.00
2018-07-02T05:02:34.444Z,96347.00
2018-07-02T05:05:02.516Z,96340.00
2018-07-02T05:07:30.483Z,96349.00
2018-07-02T05:09:58.387Z,96356.00
2018-07-02T05:12:26.350Z,96358.00
2018-07-02T05:14:54.306Z,96359.00
2018-07-02T05:17:23.999Z,96358.00
2018-07-02T05:19:52.053Z,96356.00
2018-07-02T05:22:19.981Z,96360.00
2018-07-02T05:24:47.873Z,96360.00
2018-07-02T05:27:15.833Z,96360.00
2018-07-02T05:29:43.771Z,96357.00
2018-07-02T05:32:11.678Z,96360.00
2018-07-02T05:34:39.582Z,96372.00
2018-07-02T05:37:07.581Z,96365.00
2018-07-02T05:39:35.464Z,96367.00
2018-07-02T05:42:04.705Z,96367.00
2018-07-02T05:44:34.506Z,96372.00
2018-07-02T05:47:03.660Z,96371.00
2018-07-02T05:49:33.525Z,96369.00
2018-07-02T05:52:01.560Z,96381.00
2018-07-02T05:54:29.427Z,96383.00
2018-07-02T05:56:57.320Z,96372.00
2018-07-02T05:59:25.256Z,96375.00
2018-07-02T06:01:53.096Z,96369.00
2018-07-02T06:04:21.006Z,96373.00
2018-07-02T06:06:48.887Z,96374.00
2018-07-02T06:09:16.782Z,96371.00
2018-07-02T06:11:44.683Z,96376.00
2018-07-02T06:14:12.560Z,96370.00
2018-07-02T06:16:40.550Z,96380.00
2018-07-02T06:19:08.653Z,96371.00
2018-07-02T06:21:36.553Z,96377.00
2018-07-02T06:24:04.798Z,96378.00
2018-07-02T06:26:32.704Z,96377.00
2018-07-02T06:29:00.586Z,96368.00
2018-07-02T06:31:28.487Z,96385.00
2018-07-02T06:33:56.462Z,96382.00
2018-07-02T06:36:24.365Z,96384.00
2018-07-02T06:38:52.325Z,96387.00
2018-07-02T06:41:20.261Z,96386.00
2018-07-02T06:43:48.150Z,96392.00
2018-07-02T06:46:16.029Z,96394.00
2018-07-02T06:48:44.003Z,96389.00
2018-07-02T06:51:11.929Z,96400.00
2018-07-02T06:53:39.827Z,96403.00
2018-07-02T06:56:07.762Z,96407.00
2018-07-02T06:58:35.687Z,96408.00
2018-07-02T07:01:03.549Z,96407.00
2018-07-02T07:03:31.484Z,96410.00
2018-07-02T07:05:59.352Z,96415.00
2018-07-02T07:08:27.266Z,96410.00
2018-07-02T07:10:55.143Z,96404.00
2018-07-02T07:13:23.023Z,96404.00
2018-07-02T07:15:50.920Z,96407.00
2018-07-02T07:18:18.865Z,96412.00
2018-07-02T07:20:46.774Z,96413.00
2018-07-02T07:23:14.652Z,96414.00
2018-07-02T07:25:42.559Z,96408.00
2018-07-02T07:28:10.452Z,96408.00
2018-07-02T07:30:38.338Z,96407.00
2018-07-02T07:33:06.296Z,96399.00
2018-07-02T07:35:34.200Z,96404.00
2018-07-02T07:38:02.060Z,96406.00
2018-07-02T07:40:30.003Z,96406.00
2018-07-02T07:42:57.882Z,96407.00
2018-07-02T07:45:25.753Z,96404.00
2018-07-02T07:47:53.691Z,96405.00
2018-07-02T07:50:21.561Z,96405.00
2018-07-02T07:52:49.439Z,96411.00
2018-07-02T07:55:17.374Z,96410.00
2018-07-02T07:57:45.250Z,96409.00
2018-07-02T08:00:13.117Z,96410.00
2018-07-02T08:02:41.026Z,96400.00
2018-07-02T08:05:08.947Z,96402.00
2018-07-02T08:07:36.809Z,96403.00
2018-07-02T08:10:04.906Z,96414.00
2018-07-02T08:12:32.868Z,96414.00
2018-07-02T08:15:00.659Z,96410.00
2018-07-02T08:17:28.553Z,96406.00
2018-07-02T08:19:56.481Z,96414.00
2018-07-02T08:22:24.352Z,96405.00
2018-07-02T08:24:52.273Z,96403.00
2018-07-02T08:27:20.198Z,96401.00
2018-07-02T08:29:48.065Z,96397.00
2018-07-02T08:32:15.960Z,96406.00
2018-07-02T08:34:43.851Z,96407.00
2018-07-02T08:37:11.734Z,96402.00
2018-07-02T08:39:39.659Z,96393.00
2018-07-02T08:42:07.571Z,96404.00
2018-07-02T08:44:35.499Z,96399.00
2018-07-02T08:47:03.423Z,96391.00
2018-07-02T08:49:31.295Z,96391.00
2018-07-02T08:51:59.157Z,96392.00
2018-07-02T08:54:27.058Z,96380.00
2018-07-02T08:56:54.959Z,96384.00
2018-07-02T08:59:22.867Z,96392.00
2018-07-02T09:01:50.775Z,96392.00
2018-07-02T09:04:18.651Z,96389.00
2018-07-02T09:06:46.578Z,96389.00
2018-07-02T09:09:14.480Z,96386.00
2018-07-02T09:11:42.372Z,96386.00
2018-07-02T09:14:10.233Z,96389.00
2018-07-02T09:16:38.151Z,96388.00
2018-07-02T09:19:06.064Z,96390.00
2018-07-02T09:21:33.945Z,96389.00
2018-07-02T09:24:01.845Z,96381.00
2018-07-02T09:26:29.720Z,96378.00
2018-07-02T09:28:57.616Z,96375.00
2018-07-02T09:31:25.530Z,96383.00
2018-07-02T09:33:53.434Z,96379.00
2018-07-02T09:36:21.352Z,96383.00
2018-07-02T09:38:49.279Z,96378.00
2018-07-02T09:41:17.189Z,96379.00
2018-07-02T09:43:45.069Z,96378.00
2018-07-02T09:46:12.976Z,96377.00
2018-07-02T09:48:40.837Z,96373.00
2018-07-02T09:51:08.707Z,96372.00
2018-07-02T09:53:36.585Z,96373.00
2018-07-02T09:56:04.475Z,96378.00
2018-07-02T09:58:32.321Z,96378.00
2018-07-02T10:01:00.233Z,96389.00
2018-07-02T10:03:28.109Z,96380.00
2018-07-02T10:05:56.045Z,96371.00
2018-07-02T10:08:23.951Z,96373.00
2018-07-02T10:10:51.851Z,96374.00
2018-07-02T10:13:19.741Z,96366.00
2018-07-02T10:15:47.626Z,96376.00
2018-07-02T10:18:15.522Z,96369.00
2018-07-02T10:20:43.396Z,96366.00
2018-07-02T10:23:11.299Z,96358.00
2018-07-02T10:25:39.164Z,96366.00
2018-07-02T10:28:07.370Z,96373.00
2018-07-02T10:30:35.297Z,96372.00
2018-07-02T10:33:03.179Z,96371.00
2018-07-02T10:35:31.115Z,96367.00
2018-07-02T10:37:59.005Z,96363.00
2018-07-02T10:40:26.872Z,96363.00
2018-07-02T10:42:54.759Z,96360.00
2018-07-02T10:45:22.657Z,96372.00
2018-07-02T10:47:50.528Z,96371.00
2018-07-02T10:50:18.467Z,96368.00
2018-07-02T10:52:46.333Z,96370.00
2018-07-02T10:55:14.216Z,96373.00
2018-07-02T10:57:42.116Z,96371.00
2018-07-02T11:00:10.022Z,96372.00
2018-07-02T11:02:37.906Z,96371.00
2018-07-02T11:05:05.869Z,96370.00
2018-07-02T11:07:33.769Z,96373.00
2018-07-02T11:10:01.877Z,96376.00
2018-07-02T11:12:30.049Z,96385.00
2018-07-02T11:14:57.955Z,96366.00
2018-07-02T11:17:25.825Z,96363.00
2018-07-02T11:19:53.737Z,96362.00
2018-07-02T11:22:21.633Z,96363.00
2018-07-02T11:24:49.510Z,96352.00
2018-07-02T11:27:17.392Z,96352.00
2018-07-02T11:29:45.300Z,96347.00
2018-07-02T11:32:13.167Z,96349.00
2018-07-02T11:34:41.046Z,96348.00
2018-07-02T11:37:08.970Z,96342.00
2018-07-02T11:39:36.826Z,96347.00
2018-07-02T11:42:04.737Z,96338.00
2018-07-02T11:44:32.636Z,96327.00
2018-07-02T11:47:00.535Z,96322.00
2018-07-02T11:49:28.410Z,96328.00
2018-07-02T11:51:56.348Z,96335.00
2018-07-02T11:54:24.390Z,96332.00
2018-07-02T11:56:52.668Z,96322.00
2018-07-02T11:59:20.701Z,96319.00
2018-07-02T12:01:48.585Z,96330.00
2018-07-02T12:04:16.528Z,96329.00
2018-07-02T12:06:44.396Z,96332.00
2018-07-02T12:09:12.588Z,96327.00
2018-07-02T12:11:40.968Z,96326.00
2018-07-02T12:14:08.875Z,96338.00
2018-07-02T12:16:36.744Z,96332.00
2018-07-02T12:19:04.784Z,96344.00
2018-07-02T12:21:33.077Z,96330.00
2018-07-02T12:24:00.997Z,96332.00
2018-07-02T12:26:28.868Z,96341.00
2018-07-02T12:28:56.776Z,96343.00
2018-07-02T12:31:24.665Z,96331.00
2018-07-02T12:33:52.569Z,96330.00
2018-07-02T12:36:20.478Z,96327.00
2018-07-02T12:38:48.380Z,96331.00
2018-07-02T12:41:16.284Z,96337.00
2018-07-02T12:43:44.152Z,96341.00
2018-07-02T12:46:12.022Z,96329.00
2018-07-02T12:48:39.889Z,96338.00
2018-07-02T12:51:07.792Z,96339.00
2018-07-02T12:53:35.662Z,96330.00
2018-07-02T12:56:03.511Z,96333.00
2018-07-02T12:58:31.434Z,96328.00
2018-07-02T13:00:59.320Z,96330.00
2018-07-02T13:03:27.214Z,96331.00
2018-07-02T13:05:55.147Z,96333.00
2018-07-02T13:08:23.036Z,96320.00
2018-07-02T13:10:50.927Z,96320.00
2018-07-02T13:13:18.817Z,96316.00
2018-07-02T13:15:46.675Z,96312.00
2018-07-02T13:18:14.666Z,96311.00
2018-07-02T13:20:42.619Z,96314.00
2018-07-02T13:23:10.439Z,96298.00
2018-07-02T13:25:38.317Z,96294.00
2018-07-02T13:28:06.242Z,96298.00
2018-07-02T13:30:34.137Z,96290.00
2018-07-02T13:33:02.055Z,96289.00
2018-07-02T13:35:29.978Z,96332.00
2018-07-02T13:37:57.836Z,96279.00
2018-07-02T13:40:25.702Z,96284.00
2018-07-02T13:42:53.620Z,96295.00
2018-07-02T13:45:21.500Z,96302.00
2018-07-02T13:47:49.387Z,96298.00
2018-07-02T13:50:17.279Z,96300.00
2018-07-02T13:52:45.136Z,96285.00
2018-07-02T13:55:13.085Z,96342.00
2018-07-02T13:57:40.967Z,96288.00
2018-07-02T14:00:08.805Z,96285.00
2018-07-02T14:02:36.669Z,96281.00
2018-07-02T14:05:04.624Z,96316.00
2018-07-02T14:07:32.496Z,96281.00
2018-07-02T14:10:00.365Z,96277.00
2018-07-02T14:12:28.257Z,96277.00
2018-07-02T14:14:56.232Z,96280.00
2018-07-02T14:17:24.098Z,96280.00
2018-07-02T14:19:52.015Z,96271.00
2018-07-02T14:22:19.878Z,96284.00
2018-07-02T14:24:47.734Z,96277.00
2018-07-02T14:27:15.692Z,96274.00
2018-07-02T14:29:43.505Z,96284.00
2018-07-02T14:32:11.398Z,96269.00
2018-07-02T14:34:42.399Z,96270.00
2018-07-02T14:37:10.255Z,96267.00
2018-07-02T14:39:40.921Z,96257.00
2018-07-02T14:42:08.823Z,96264.00
2018-07-02T14:44:36.707Z,96257.00
2018-07-02T14:47:04.625Z,96269.00
2018-07-02T14:49:32.498Z,96255.00
2018-07-02T14:52:00.363Z,96248.00
2018-07-02T14:54:28.258Z,96052.00
2018-07-02T14:56:56.151Z,96101.00
2018-07-02T14:59:24.047Z,96180.00
2018-07-02T15:01:51.954Z,96020.00
2018-07-02T15:04:19.847Z,96305.00
2018-07-02T15:06:47.788Z,96016.00
2018-07-02T15:09:15.686Z,96297.00
2018-07-02T15:11:43.663Z,96301.00
2018-07-02T15:14:11.520Z,96281.00
2018-07-02T15:16:39.437Z,96272.00
2018-07-02T15:19:07.320Z,96312.00
2018-07-02T15:21:35.182Z,96307.00
2018-07-02T15:24:03.092Z,96305.00
2018-07-02T15:26:30.952Z,96308.00
2018-07-02T15:28:58.901Z,96279.00
2018-07-02T15:31:26.772Z,96260.00
2018-07-02T15:33:54.745Z,96279.00
2018-07-02T15:36:22.596Z,96277.00
2018-07-02T15:38:50.458Z,96281.00
2018-07-02T15:41:18.330Z,96292.00
2018-07-02T15:43:46.259Z,96285.00
2018-07-02T15:46:14.126Z,96294.00
2018-07-02T15:48:42.107Z,96295.00
2018-07-02T15:51:09.976Z,96289.00
2018-07-02T15:53:37.889Z,96284.00
2018-07-02T15:56:05.900Z,96282.00
2018-07-02T15:58:33.809Z,96279.00
2018-07-02T16:01:01.667Z,96294.00
2018-07-02T16:03:29.587Z,96292.00
2018-07-02T16:05:57.496Z,96294.00
2018-07-02T16:08:25.376Z,96287.00
2018-07-02T16:10:53.351Z,96288.00
2018-07-02T16:13:21.220Z,96289.00
2018-07-02T16:15:49.070Z,96285.00
2018-07-02T16:18:16.986Z,96291.00
2018-07-02T16:20:44.897Z,96289.00
2018-07-02T16:23:12.757Z,96292.00
2018-07-02T16:25:40.668Z,96293.00
2018-07-02T16:28:08.886Z,96295.00
2018-07-02T16:30:36.781Z,96294.00
2018-07-02T16:33:04.824Z,96296.00
2018-07-02T16:35:32.706Z,96296.00
2018-07-02T16:38:00.586Z,96298.00
2018-07-02T16:40:28.519Z,96296.00
2018-07-02T16:42:56.427Z,96303.00
2018-07-02T16:45:24.301Z,96301.00
2018-07-02T16:47:52.380Z,96302.00
2018-07-02T16:50:20.170Z,96296.00
2018-07-02T16:52:48.043Z,96300.00
2018-07-02T16:55:15.985Z,96300.00
2018-07-02T16:57:43.864Z,96299.00
2018-07-02T17:00:11.746Z,96301.00
2018-07-02T17:02:39.643Z,96297.00
2018-07-02T17:05:07.570Z,96296.00
2018-07-02T17:07:35.451Z,96305.00
2018-07-02T17:10:03.609Z,96307.00
2018-07-02T17:12:31.463Z,96312.00
2018-07-02T17:14:59.331Z,96310.00
2018-07-02T17:17:27.248Z,96314.00
2018-07-02T17:19:55.138Z,96304.00
2018-07-02T17:22:23.022Z,96313.00
2018-07-02T17:24:50.938Z,96315.00
2018-07-02T17:27:18.904Z,96315.00
2018-07-02T17:29:46.789Z,96315.00
2018-07-02T17:32:14.713Z,96310.00
2018-07-02T17:34:42.595Z,96313.00
2018-07-02T17:37:10.482Z,96317.00
2018-07-02T17:39:38.400Z,96323.00
2018-07-02T17:42:06.638Z,96325.00
2018-07-02T17:44:34.522Z,96328.00
2018-07-02T17:47:02.487Z,96319.00
2018-07-02T17:49:30.353Z,96332.00
2018-07-02T17:51:58.229Z,96333.00
2018-07-02T17:54:26.140Z,96337.00
2018-07-02T17:56:54.021Z,96333.00
2018-07-02T17:59:21.895Z,96336.00
2018-07-02T18:01:49.806Z,96343.00
2018-07-02T18:04:17.700Z,96337.00
2018-07-02T18:06:45.578Z,96344.00
2018-07-02T18:09:13.501Z,96338.00
2018-07-02T18:11:41.373Z,96349.00
2018-07-02T18:14:09.265Z,96341.00
2018-07-02T18:16:37.235Z,96354.00
2018-07-02T18:19:05.301Z,96351.00
2018-07-02T18:21:33.166Z,96352.00
2018-07-02T18:24:01.075Z,96351.00
2018-07-02T18:26:28.938Z,96357.00
2018-07-02T18:28:56.829Z,96358.00
2018-07-02T18:31:24.733Z,96364.00
2018-07-02T18:33:52.686Z,96362.00
2018-07-02T18:36:20.571Z,96365.00
2018-07-02T18:38:48.480Z,96360.00
2018-07-02T18:41:16.375Z,96369.00
2018-07-02T18:43:44.326Z,96362.00
2018-07-02T18:46:12.228Z,96372.00
2018-07-02T18:48:40.190Z,96386.00
2018-07-02T18:51:08.036Z,96387.00
2018-07-02T18:53:35.958Z,96389.00
2018-07-02T18:56:03.812Z,96391.00
2018-07-02T18:58:32.112Z,96393.00
2018-07-02T19:01:00.069Z,96396.00
2018-07-02T19:03:27.952Z,96390.00
2018-07-02T19:05:55.903Z,96393.00
2018-07-02T19:08:24.303Z,96392.00
2018-07-02T19:10:52.221Z,96391.00
2018-07-02T19:13:20.136Z,96402.00
2018-07-02T19:15:48.060Z,96400.00
2018-07-02T19:18:15.965Z,96398.00
2018-07-02T19:20:43.862Z,96405.00
2018-07-02T19:23:11.779Z,96408.00
2018-07-02T19:25:39.681Z,96412.00
2018-07-02T19:28:07.573Z,96420.00
2018-07-02T19:30:35.477Z,96420.00
2018-07-02T19:33:03.382Z,96422.00
2018-07-02T19:35:31.296Z,96431.00
2018-07-02T19:37:59.242Z,96431.00
2018-07-02T19:40:27.372Z,96438.00
2018-07-02T19:42:55.689Z,96440.00
2018-07-02T19:45:23.775Z,96447.00
2018-07-02T19:47:51.737Z,96447.00
2018-07-02T19:50:19.633Z,96457.00
2018-07-02T19:52:51.484Z,96455.00
2018-07-02T19:55:21.334Z,96457.00
2018-07-02T19:57:51.771Z,96463.00
2018-07-02T20:00:21.266Z,96464.00
2018-07-02T20:02:49.225Z,96468.00
2018-07-02T20:05:17.061Z,96469.00
2018-07-02T20:07:44.970Z,96475.00
2018-07-02T20:10:12.865Z,96479.00
2018-07-02T20:12:40.810Z,96486.00
2018-07-02T20:15:08.719Z,96489.00
2018-07-02T20:17:36.585Z,96492.00
2018-07-02T20:20:07.563Z,96493.00
2018-07-02T20:22:35.804Z,96498.00
2018-07-02T20:25:03.700Z,96503.00
2018-07-02T20:27:31.590Z,96498.00
2018-07-02T20:30:04.700Z,96493.00
2018-07-02T20:32:38.927Z,96502.00
2018-07-02T20:35:10.704Z,96504.00
2018-07-02T20:37:43.714Z,96504.00
2018-07-02T20:40:17.172Z,96502.00
2018-07-02T20:42:50.775Z,96501.00
2018-07-02T20:45:24.219Z,96498.00
2018-07-02T20:47:57.539Z,96506.00
2018-07-02T20:50:31.135Z,96501.00
2018-07-02T20:53:05.576Z,96502.00
2018-07-02T20:55:40.532Z,96495.00
2018-07-02T20:58:13.850Z,96495.00
2018-07-02T21:00:46.202Z,96502.00
2018-07-02T21:03:18.930Z,96506.00
2018-07-02T21:05:52.629Z,96502.00
2018-07-02T21:08:25.255Z,96501.00
2018-07-02T21:10:58.331Z,96497.00
2018-07-02T21:13:31.552Z,96492.00
2018-07-02T21:16:05.406Z,96507.00
2018-07-02T21:18:38.038Z,96493.00
2018-07-02T21:21:12.983Z,96490.00
2018-07-02T21:23:42.925Z,96496.00
2018-07-02T21:26:14.206Z,96501.00
2018-07-02T21:28:42.538Z,96502.00
2018-07-02T21:31:11.222Z,96495.00
2018-07-02T21:33:39.552Z,96494.00
2018-07-02T21:36:08.009Z,96492.00
2018-07-02T21:38:36.421Z,96496.00
2018-07-02T21:41:05.766Z,96497.00
2018-07-02T21:43:34.498Z,96489.00
2018-07-02T21:46:02.872Z,96477.00
2018-07-02T21:48:30.868Z,96491.00
2018-07-02T21:51:00.943Z,96487.00
2018-07-02T21:53:29.366Z,96488.00
2018-07-02T21:55:57.789Z,96492.00
2018-07-02T21:58:27.368Z,96496.00
2018-07-02T22:00:58.512Z,96499.00
2018-07-02T22:03:28.076Z,96503.00
2018-07-02T22:05:56.949Z,96486.00
2018-07-02T22:08:26.062Z,96491.00
2018-07-02T22:10:54.198Z,96496.00
2018-07-02T22:13:23.688Z,96490.00
2018-07-02T22:15:52.594Z,96505.00
2018-07-02T22:18:21.263Z,96502.00
2018-07-02T22:20:50.833Z,96496.00
2018-07-02T22:23:18.780Z,96492.00
2018-07-02T22:25:46.736Z,96490.00
2018-07-02T22:28:14.732Z,96492.00
2018-07-02T22:30:42.619Z,96494.00
2018-07-02T22:33:10.759Z,96500.00
2018-07-02T22:35:38.728Z,96496.00
2018-07-02T22:38:06.648Z,96501.00
2018-07-02T22:40:42.374Z,96504.00
2018-07-02T22:43:10.662Z,96502.00
2018-07-02T22:45:38.526Z,96506.00
2018-07-02T22:48:06.441Z,96500.00
2018-07-02T22:50:34.353Z,96495.00
2018-07-02T22:53:07.942Z,96497.00
2018-07-02T22:56:11.661Z,96493.00
2018-07-02T22:58:46.710Z,96483.00
2018-07-02T23:01:29.388Z,96484.00
2018-07-02T23:04:07.016Z,96478.00
2018-07-02T23:06:44.511Z,96479.00
2018-07-02T23:09:23.618Z,96475.00
2018-07-02T23:12:01.704Z,96479.00
2018-07-02T23:15:00.728Z,96473.00
2018-07-02T23:17:31.700Z,96480.00
2018-07-02T23:22:59.289Z,96473.00
2018-07-02T23:25:29.513Z,96478.00
2018-07-02T23:28:00.977Z,96479.00
2018-07-02T23:30:33.392Z,96483.00
2018-07-02T23:33:06.285Z,96479.00
2018-07-02T23:35:37.709Z,96487.00
2018-07-02T23:38:08.752Z,96470.00
2018-07-02T23:40:39.555Z,96473.00
2018-07-02T23:43:12.005Z,96480.00
2018-07-02T23:45:43.435Z,96483.00
2018-07-02T23:48:15.054Z,96480.00
2018-07-02T23:50:45.035Z,96477.00
2018-07-02T23:53:15.669Z,96486.00
2018-07-02T23:55:46.053Z,96475.00
2018-07-02T23:58:17.840Z,96483.00
